KSANKTSP

Guest
Details From KSAN - San Diego Intl
To KTSP - TEHACHAPI MUNI
Flight Number -
Tags generated
Created
Modified
Stats Distance 157 nm / 291 km
Max Altitude 14,800 ft / 4,511 m
Waypoints 3
Social Downloads 0
Likes 0
Share VATSIM

Download

Looking for another format? Having issues loading an existing format? Contact us
Advertisement - Login to hide

Notes

Basic altitude profile: - Ascent Rate: 700ft/min - Ascent Speed: 120kts - Cruise Altitude: 10000ft - Cruise Speed: 150kts - Descent Rate: 1000ft/min - Descent Speed: 150kts Options: - Use NATs: yes - Use PACOTS: yes - Use low airways: yes - Use high airways: yes

Route

KSAN COVIN KTSP

ID Type Via Altitude Latitude Longitude Leg Dist Tot Dist Heading (true) Name
O KSAN APT - 0 ft / 0 m 32.73356˚ -117.18966˚ - 0 nm - San Diego Intl
COVIN FIX - 14,800 ft / 4,511 m 34.07685˚ -117.89017˚ 87 nm 87 nm 337° / 336° -
O KTSP APT - 0 ft / 0 m 35.13500˚ -118.43922˚ 69 nm 157 nm 337° / 337° TEHACHAPI MUNI

Altitude Profile

Advertisement - Login to hide

KSAN

Details ICAO KSAN (SAN)
Name San Diego Intl
Region United States
Timezone America/Los_Angeles (UTC-8.0)
Stats Elevation 17 ft / 5 m (AMSL)
Location 32.733556° -117.189658°
Runways 1
Magnetic Variation 11.525° E

METAR

KSAN 150751Z 00000KT 10SM CLR 13/01 A3010 RMK AO2 SLP191 T01280011 402280089

Decode

TAF

TAF KSAN 150520Z 1506/1612 VRB04KT P6SM FEW250 FM152000 32007KT P6SM SKC FM160200 VRB04KT P6SM SKC

Decode

Departure Runways

ID Width Length Bearing (true) Bearing (mag) Surface Threshold Offset Overrun Length
09 200 ft / 61 m 9,387 ft / 2,861 m 106.07° 94.55° Asphalt 699 ft / 213 m 269 ft / 82 m
27 200 ft / 61 m 9,387 ft / 2,861 m 286.08° 274.56° Asphalt 1,811 ft / 552 m 0 ft / 0 m

KTSP

Details ICAO KTSP
Name TEHACHAPI MUNI
Region United States
Timezone America/Los_Angeles (UTC-8.0)
Stats Elevation 4,001 ft / 1,220 m (AMSL)
Location 35.134999° -118.439218°
Runways 1
Magnetic Variation 12.245° E

METAR

KTSP 150815Z AUTO 11010KT 10SM CLR 01/M15 A3031 RMK AO2

Decode

TAF

Not found

Destination Runways

ID Width Length Bearing (true) Bearing (mag) Surface Threshold Offset Overrun Length
11 85 ft / 26 m 4,027 ft / 1,227 m 124.75° 112.51° Asphalt 305 ft / 93 m 0 ft / 0 m
29 85 ft / 26 m 4,027 ft / 1,227 m 304.75° 292.51° Asphalt 384 ft / 117 m 0 ft / 0 m

Popular Alternatives